createdAt,value
2024-04-06T00:00:01.041Z,101280
2024-04-06T00:05:00.651Z,101270
2024-04-06T00:10:00.675Z,101270
2024-04-06T00:15:00.648Z,101270
2024-04-06T00:20:00.718Z,101270
2024-04-06T00:25:00.665Z,101280
2024-04-06T00:30:00.756Z,101280
2024-04-06T00:35:00.635Z,101290
2024-04-06T00:40:00.680Z,101290
2024-04-06T00:45:00.832Z,101290
2024-04-06T00:50:01.207Z,101270
2024-04-06T00:55:01.369Z,101270
2024-04-06T01:00:01.466Z,101280
2024-04-06T01:05:00.700Z,101270
2024-04-06T01:10:00.661Z,101280
2024-04-06T01:15:01.423Z,101270
2024-04-06T01:20:00.815Z,101270
2024-04-06T01:25:00.764Z,101260
2024-04-06T01:30:00.788Z,101260
2024-04-06T01:35:00.655Z,101260
2024-04-06T01:40:00.641Z,101260
2024-04-06T01:45:00.724Z,101260
2024-04-06T01:50:04.360Z,101270
2024-04-06T01:55:02.813Z,101270
2024-04-06T02:00:01.229Z,101270
2024-04-06T02:05:00.680Z,101270
2024-04-06T02:10:00.675Z,101250
2024-04-06T02:15:00.666Z,101270
2024-04-06T02:20:00.706Z,101270
2024-04-06T02:25:00.737Z,101280
2024-04-06T02:30:01.666Z,101280
2024-04-06T02:35:00.665Z,101270
2024-04-06T02:40:00.685Z,101270
2024-04-06T02:45:00.999Z,101260
2024-04-06T02:50:00.872Z,101250
2024-04-06T02:55:00.651Z,101260
2024-04-06T03:00:01.255Z,101250
2024-04-06T03:05:00.654Z,101250
2024-04-06T03:10:00.683Z,101230
2024-04-06T03:15:00.677Z,101220
2024-04-06T03:20:00.669Z,101220
2024-04-06T03:25:00.628Z,101210
2024-04-06T03:30:00.752Z,101200
2024-04-06T03:35:00.648Z,101200
2024-04-06T03:40:00.667Z,101210
2024-04-06T03:45:00.909Z,101220
2024-04-06T03:50:00.679Z,101200
2024-04-06T03:55:00.644Z,101220
2024-04-06T04:00:01.287Z,101230
2024-04-06T04:05:00.646Z,101210
2024-04-06T04:10:00.656Z,101200
2024-04-06T04:15:01.888Z,101200
2024-04-06T04:20:01.758Z,101190
2024-04-06T04:25:00.680Z,101190
2024-04-06T04:30:00.793Z,101190
2024-04-06T04:35:00.677Z,101190
2024-04-06T04:40:00.736Z,101190
2024-04-06T04:45:07.281Z,101180
2024-04-06T04:50:01.055Z,101180
2024-04-06T04:55:01.077Z,101160
2024-04-06T05:00:01.227Z,101150
2024-04-06T05:05:00.644Z,101160
2024-04-06T05:10:00.703Z,101140
2024-04-06T05:15:00.655Z,101130
2024-04-06T05:20:00.707Z,101140
2024-04-06T05:25:00.685Z,101140
2024-04-06T05:30:00.685Z,101150
2024-04-06T05:35:00.634Z,101160
2024-04-06T05:40:00.704Z,101150
2024-04-06T05:45:00.637Z,101150
2024-04-06T05:50:01.033Z,101140
2024-04-06T05:55:02.595Z,101140
2024-04-06T06:00:01.693Z,101130
2024-04-06T06:05:00.643Z,101130
2024-04-06T06:10:00.718Z,101130
2024-04-06T06:15:01.185Z,101150
2024-04-06T06:20:01.126Z,101150
2024-04-06T06:25:00.707Z,101150
2024-04-06T06:30:00.726Z,101160
2024-04-06T06:35:00.708Z,101170
2024-04-06T06:45:00.703Z,101150
2024-04-06T06:50:01.088Z,101150
2024-04-06T06:55:00.674Z,101150
2024-04-06T07:05:00.689Z,101130
2024-04-06T07:10:00.811Z,101130
2024-04-06T07:15:00.616Z,101130
2024-04-06T07:20:00.652Z,101120
2024-04-06T07:25:00.653Z,101120
2024-04-06T07:30:00.770Z,101100
2024-04-06T07:35:00.663Z,101090
2024-04-06T07:40:00.911Z,101090
2024-04-06T07:45:00.624Z,101090
2024-04-06T07:50:00.715Z,101090
2024-04-06T07:55:01.581Z,101090
2024-04-06T08:00:01.393Z,101080
2024-04-06T08:05:00.622Z,101080
2024-04-06T08:10:12.548Z,101060
2024-04-06T08:15:00.642Z,101050
2024-04-06T08:20:00.687Z,101060
2024-04-06T08:25:00.710Z,101050
2024-04-06T08:30:01.531Z,101040
2024-04-06T08:35:01.011Z,101030
2024-04-06T08:40:00.665Z,101030
2024-04-06T08:45:00.816Z,101040
2024-04-06T08:50:05.890Z,101040
2024-04-06T08:55:01.104Z,101050
2024-04-06T09:00:02.602Z,101040
2024-04-06T09:05:01.805Z,101030
2024-04-06T09:10:00.662Z,101020
2024-04-06T09:15:00.744Z,101010
2024-04-06T09:20:03.480Z,101000
2024-04-06T09:25:05.961Z,101010
2024-04-06T09:30:00.802Z,101000
2024-04-06T09:35:01.498Z,100990
2024-04-06T09:40:02.225Z,100980
2024-04-06T09:45:01.811Z,100960
2024-04-06T09:50:01.007Z,100950
2024-04-06T09:55:01.019Z,100940
2024-04-06T10:00:02.875Z,100940
2024-04-06T10:05:02.180Z,100940
2024-04-06T10:10:02.924Z,100930
2024-04-06T10:15:03.514Z,100920
2024-04-06T10:20:01.285Z,100930
2024-04-06T10:25:01.878Z,100930
2024-04-06T10:30:01.559Z,100930
2024-04-06T10:35:01.220Z,100920
2024-04-06T10:40:00.799Z,100930
2024-04-06T10:45:00.687Z,100920
2024-04-06T10:50:00.757Z,100920
2024-04-06T10:55:00.696Z,100910
2024-04-06T11:00:03.573Z,100910
2024-04-06T11:05:01.616Z,100890
2024-04-06T11:10:01.029Z,100870
2024-04-06T11:15:01.023Z,100860
2024-04-06T11:20:01.084Z,100860
2024-04-06T11:25:00.632Z,100860
2024-04-06T11:30:04.363Z,100850
2024-04-06T11:35:00.675Z,100850
2024-04-06T11:40:01.342Z,100850
2024-04-06T11:45:00.820Z,100840
2024-04-06T11:50:02.234Z,100850
2024-04-06T11:55:00.676Z,100840
2024-04-06T12:00:01.262Z,100830
2024-04-06T12:05:00.648Z,100830
2024-04-06T12:10:00.685Z,100810
2024-04-06T12:15:00.719Z,100820
2024-04-06T12:20:00.726Z,100810
2024-04-06T12:25:00.694Z,100820
2024-04-06T12:30:00.809Z,100850
2024-04-06T12:35:00.743Z,100850
2024-04-06T12:40:00.938Z,100860
2024-04-06T12:45:00.654Z,100860
2024-04-06T12:50:00.680Z,100870
2024-04-06T12:55:00.666Z,100880
2024-04-06T13:00:01.595Z,100890
2024-04-06T13:05:00.839Z,100890
2024-04-06T13:10:01.666Z,100890
2024-04-06T13:15:02.373Z,100890
2024-04-06T13:20:01.726Z,100890
2024-04-06T13:25:00.649Z,100890
2024-04-06T13:30:00.889Z,100900
2024-04-06T13:35:01.207Z,100880
2024-04-06T13:40:03.225Z,100860
2024-04-06T13:45:00.649Z,100870
2024-04-06T13:50:01.324Z,100870
2024-04-06T13:55:01.084Z,100840
2024-04-06T14:00:01.359Z,100850
2024-04-06T14:05:00.799Z,100850
2024-04-06T14:10:00.653Z,100850
2024-04-06T14:15:00.685Z,100840
2024-04-06T14:20:01.912Z,100840
2024-04-06T14:25:00.837Z,100840
2024-04-06T14:30:00.745Z,100840
2024-04-06T14:35:00.653Z,100840
2024-04-06T14:40:00.707Z,100830
2024-04-06T14:45:00.837Z,100830
2024-04-06T14:50:01.015Z,100820
2024-04-06T14:55:00.854Z,100830
2024-04-06T15:00:02.156Z,100830
2024-04-06T15:05:00.744Z,100840
2024-04-06T15:10:00.695Z,100850
2024-04-06T15:15:00.613Z,100850
2024-04-06T15:20:00.967Z,100850
2024-04-06T15:25:00.693Z,100850
2024-04-06T15:30:01.245Z,100840
2024-04-06T15:35:00.710Z,100850
2024-04-06T15:40:01.637Z,100860
2024-04-06T15:45:01.029Z,100860
2024-04-06T15:50:00.928Z,100870
2024-04-06T15:55:00.702Z,100880
2024-04-06T16:00:02.943Z,100880
2024-04-06T16:05:00.738Z,100870
2024-04-06T16:10:00.680Z,100870
2024-04-06T16:15:02.185Z,100870
2024-04-06T16:20:00.643Z,100870
2024-04-06T16:25:00.654Z,100880
2024-04-06T16:30:00.750Z,100880
2024-04-06T16:35:00.635Z,100880
2024-04-06T16:40:00.659Z,100890
2024-04-06T16:45:00.701Z,100900
2024-04-06T16:50:00.639Z,100900
2024-04-06T16:55:00.683Z,100910
2024-04-06T17:00:01.302Z,100930
2024-04-06T17:05:00.635Z,100910
2024-04-06T17:10:00.671Z,100920
2024-04-06T17:15:01.512Z,100920
2024-04-06T17:20:01.721Z,100930
2024-04-06T17:25:00.642Z,100920
2024-04-06T17:30:01.325Z,100910
2024-04-06T17:35:00.694Z,100910
2024-04-06T17:40:00.694Z,100920
2024-04-06T17:45:00.721Z,100930
2024-04-06T17:50:00.712Z,100930
2024-04-06T17:55:00.666Z,100940
2024-04-06T18:00:01.201Z,100940
2024-04-06T18:05:00.664Z,100940
2024-04-06T18:10:00.707Z,100930
2024-04-06T18:15:00.687Z,100930
2024-04-06T18:20:00.648Z,100920
2024-04-06T18:25:00.678Z,100930
2024-04-06T18:30:00.861Z,100930
2024-04-06T18:35:00.659Z,100940
2024-04-06T18:40:00.657Z,100950
2024-04-06T18:45:01.099Z,100960
2024-04-06T18:50:00.671Z,100960
2024-04-06T18:55:00.648Z,100970
2024-04-06T19:00:01.325Z,100970
2024-04-06T19:05:00.747Z,100950
2024-04-06T19:10:00.648Z,100940
2024-04-06T19:15:00.706Z,100950
2024-04-06T19:20:00.780Z,100940
2024-04-06T19:25:00.646Z,100950
2024-04-06T19:30:01.077Z,100940
2024-04-06T19:35:00.660Z,100940
2024-04-06T19:40:00.681Z,100940
2024-04-06T19:45:00.985Z,100920
2024-04-06T19:50:00.677Z,100930
2024-04-06T19:55:01.041Z,100950
2024-04-06T20:00:01.255Z,100940
2024-04-06T20:05:00.681Z,100940
2024-04-06T20:10:00.652Z,100940
2024-04-06T20:15:00.739Z,100940
2024-04-06T20:20:00.666Z,100940
2024-04-06T20:25:00.920Z,100940
2024-04-06T20:30:00.720Z,100940
2024-04-06T20:35:00.663Z,100920
2024-04-06T20:40:00.689Z,100920
2024-04-06T20:45:00.655Z,100920
2024-04-06T20:50:00.720Z,100930
2024-04-06T20:55:00.628Z,100930
2024-04-06T21:00:01.366Z,100930
2024-04-06T21:05:00.641Z,100930
2024-04-06T21:10:00.818Z,100920
2024-04-06T21:15:04.182Z,100920
2024-04-06T21:20:03.654Z,100920
2024-04-06T21:25:00.641Z,100910
2024-04-06T21:30:00.873Z,100900
2024-04-06T21:35:00.654Z,100900
2024-04-06T21:40:01.703Z,100900
2024-04-06T21:45:00.757Z,100880
2024-04-06T21:50:00.675Z,100860
2024-04-06T21:55:00.633Z,100860
2024-04-06T22:00:01.275Z,100880
2024-04-06T22:05:00.661Z,100880
2024-04-06T22:10:00.658Z,100890
2024-04-06T22:15:00.686Z,100890
2024-04-06T22:20:00.722Z,100880
2024-04-06T22:25:00.627Z,100890
2024-04-06T22:30:00.757Z,100900
2024-04-06T22:35:00.693Z,100900
2024-04-06T22:40:02.456Z,100890
2024-04-06T22:45:00.683Z,100900
2024-04-06T22:50:00.710Z,100880
2024-04-06T22:55:00.656Z,100840
2024-04-06T23:00:01.317Z,100890
2024-04-06T23:05:00.692Z,100880
2024-04-06T23:10:00.621Z,100900
2024-04-06T23:15:00.752Z,100880
2024-04-06T23:20:00.936Z,100890
2024-04-06T23:25:00.880Z,100890
2024-04-06T23:30:00.988Z,100900
2024-04-06T23:35:00.965Z,100910
2024-04-06T23:40:00.690Z,100920
2024-04-06T23:45:00.739Z,100920
2024-04-06T23:50:00.693Z,100910
2024-04-06T23:55:00.726Z,100940
